sensor_id;sensor_type;location;lat;lon;timestamp;temperature;humidity
23051;DHT22;11693;51.358;12.410;2022-09-27T00:00:36;16.30;99.90
23051;DHT22;11693;51.358;12.410;2022-09-27T00:03:02;16.30;99.90
23051;DHT22;11693;51.358;12.410;2022-09-27T00:05:28;16.30;99.90
23051;DHT22;11693;51.358;12.410;2022-09-27T00:07:55;16.30;99.90
23051;DHT22;11693;51.358;12.410;2022-09-27T00:10:20;16.40;99.90
23051;DHT22;11693;51.358;12.410;2022-09-27T00:12:46;16.50;99.90
23051;DHT22;11693;51.358;12.410;2022-09-27T00:15:12;16.60;99.90
23051;DHT22;11693;51.358;12.410;2022-09-27T00:17:39;16.70;99.90
23051;DHT22;11693;51.358;12.410;2022-09-27T00:20:06;16.60;99.90
23051;DHT22;11693;51.358;12.410;2022-09-27T00:22:32;16.60;99.90
23051;DHT22;11693;51.358;12.410;2022-09-27T00:24:58;16.50;99.90
23051;DHT22;11693;51.358;12.410;2022-09-27T00:27:27;16.40;99.90
23051;DHT22;11693;51.358;12.410;2022-09-27T00:29:53;16.60;99.90
23051;DHT22;11693;51.358;12.410;2022-09-27T00:32:18;16.50;99.90
23051;DHT22;11693;51.358;12.410;2022-09-27T00:34:44;16.40;99.90
23051;DHT22;11693;51.358;12.410;2022-09-27T00:37:10;16.20;99.90
23051;DHT22;11693;51.358;12.410;2022-09-27T00:39:36;16.10;99.90
23051;DHT22;11693;51.358;12.410;2022-09-27T00:42:04;16.00;99.90
23051;DHT22;11693;51.358;12.410;2022-09-27T00:47:10;16.00;99.90
23051;DHT22;11693;51.358;12.410;2022-09-27T00:52:34;15.70;99.90
23051;DHT22;11693;51.358;12.410;2022-09-27T00:55:10;15.80;99.90
23051;DHT22;11693;51.358;12.410;2022-09-27T00:57:37;15.80;99.90
23051;DHT22;11693;51.358;12.410;2022-09-27T01:00:07;15.90;99.90
23051;DHT22;11693;51.358;12.410;2022-09-27T01:02:34;16.00;99.90
23051;DHT22;11693;51.358;12.410;2022-09-27T01:05:03;15.80;99.90
23051;DHT22;11693;51.358;12.410;2022-09-27T01:07:29;15.90;99.90
23051;DHT22;11693;51.358;12.410;2022-09-27T01:09:55;15.80;99.90
23051;DHT22;11693;51.358;12.410;2022-09-27T01:15:45;15.70;99.90
23051;DHT22;11693;51.358;12.410;2022-09-27T01:21:48;15.60;99.90
23051;DHT22;11693;51.358;12.410;2022-09-27T01:35:02;15.70;99.90
23051;DHT22;11693;51.358;12.410;2022-09-27T01:37:54;15.70;99.90
23051;DHT22;11693;51.358;12.410;2022-09-27T01:40:32;15.70;99.90
23051;DHT22;11693;51.358;12.410;2022-09-27T01:43:05;15.70;99.90
23051;DHT22;11693;51.358;12.410;2022-09-27T01:45:35;15.90;99.90
23051;DHT22;11693;51.358;12.410;2022-09-27T01:48:08;15.90;99.90
23051;DHT22;11693;51.358;12.410;2022-09-27T01:53:37;16.00;99.90
23051;DHT22;11693;51.358;12.410;2022-09-27T01:56:06;15.90;99.90
23051;DHT22;11693;51.358;12.410;2022-09-27T01:59:13;15.90;99.90
23051;DHT22;11693;51.358;12.410;2022-09-27T02:01:38;16.00;99.90
23051;DHT22;11693;51.358;12.410;2022-09-27T02:04:09;16.00;99.90
23051;DHT22;11693;51.358;12.410;2022-09-27T02:06:40;16.10;99.90
23051;DHT22;11693;51.358;12.410;2022-09-27T02:09:21;16.20;99.90
23051;DHT22;11693;51.358;12.410;2022-09-27T02:11:53;16.10;99.90
23051;DHT22;11693;51.358;12.410;2022-09-27T02:14:26;16.10;99.90
23051;DHT22;11693;51.358;12.410;2022-09-27T02:16:59;16.00;99.90
23051;DHT22;11693;51.358;12.410;2022-09-27T02:19:37;16.00;99.90
23051;DHT22;11693;51.358;12.410;2022-09-27T02:22:38;16.00;99.90
23051;DHT22;11693;51.358;12.410;2022-09-27T02:27:57;16.00;99.90
23051;DHT22;11693;51.358;12.410;2022-09-27T02:30:25;16.00;99.90
23051;DHT22;11693;51.358;12.410;2022-09-27T02:32:51;16.00;99.90
23051;DHT22;11693;51.358;12.410;2022-09-27T02:35:35;16.00;99.90
23051;DHT22;11693;51.358;12.410;2022-09-27T02:38:03;16.20;99.90
23051;DHT22;11693;51.358;12.410;2022-09-27T02:40:33;16.20;99.90
23051;DHT22;11693;51.358;12.410;2022-09-27T02:43:01;16.30;99.90
23051;DHT22;11693;51.358;12.410;2022-09-27T02:45:34;16.40;99.90
23051;DHT22;11693;51.358;12.410;2022-09-27T02:48:18;16.50;99.90
23051;DHT22;11693;51.358;12.410;2022-09-27T02:51:02;16.50;99.90
23051;DHT22;11693;51.358;12.410;2022-09-27T02:53:40;16.40;99.90
23051;DHT22;11693;51.358;12.410;2022-09-27T03:05:08;16.20;99.90
23051;DHT22;11693;51.358;12.410;2022-09-27T03:07:15;16.20;99.90
23051;DHT22;11693;51.358;12.410;2022-09-27T03:09:46;16.20;99.90
23051;DHT22;11693;51.358;12.410;2022-09-27T03:12:13;16.10;99.90
23051;DHT22;11693;51.358;12.410;2022-09-27T03:14:39;16.20;99.90
23051;DHT22;11693;51.358;12.410;2022-09-27T03:17:05;16.00;99.90
23051;DHT22;11693;51.358;12.410;2022-09-27T03:19:30;16.00;99.90
23051;DHT22;11693;51.358;12.410;2022-09-27T03:21:56;15.90;99.90
23051;DHT22;11693;51.358;12.410;2022-09-27T03:24:22;15.90;99.90
23051;DHT22;11693;51.358;12.410;2022-09-27T03:26:48;15.80;99.90
23051;DHT22;11693;51.358;12.410;2022-09-27T03:29:14;15.80;99.90
23051;DHT22;11693;51.358;12.410;2022-09-27T03:31:40;15.80;99.90
23051;DHT22;11693;51.358;12.410;2022-09-27T03:34:06;15.80;99.90
23051;DHT22;11693;51.358;12.410;2022-09-27T03:36:31;15.80;99.90
23051;DHT22;11693;51.358;12.410;2022-09-27T03:38:57;15.70;99.90
23051;DHT22;11693;51.358;12.410;2022-09-27T03:41:23;15.60;99.90
23051;DHT22;11693;51.358;12.410;2022-09-27T03:43:49;15.60;99.90
23051;DHT22;11693;51.358;12.410;2022-09-27T03:46:14;15.50;99.90
23051;DHT22;11693;51.358;12.410;2022-09-27T03:48:40;15.40;99.90
23051;DHT22;11693;51.358;12.410;2022-09-27T03:51:07;15.30;99.90
23051;DHT22;11693;51.358;12.410;2022-09-27T03:53:32;15.20;99.90
23051;DHT22;11693;51.358;12.410;2022-09-27T03:55:58;15.10;99.90
23051;DHT22;11693;51.358;12.410;2022-09-27T03:58:24;15.00;99.90
23051;DHT22;11693;51.358;12.410;2022-09-27T04:00:49;14.90;99.90
23051;DHT22;11693;51.358;12.410;2022-09-27T04:03:15;14.80;99.90
23051;DHT22;11693;51.358;12.410;2022-09-27T04:05:42;14.70;99.90
23051;DHT22;11693;51.358;12.410;2022-09-27T04:08:07;14.70;99.90
23051;DHT22;11693;51.358;12.410;2022-09-27T04:10:35;14.90;99.90
23051;DHT22;11693;51.358;12.410;2022-09-27T04:13:01;14.80;99.90
23051;DHT22;11693;51.358;12.410;2022-09-27T04:15:26;14.80;99.90
23051;DHT22;11693;51.358;12.410;2022-09-27T04:17:52;14.70;99.90
23051;DHT22;11693;51.358;12.410;2022-09-27T04:20:17;14.60;99.90
23051;DHT22;11693;51.358;12.410;2022-09-27T04:22:43;14.40;99.90
23051;DHT22;11693;51.358;12.410;2022-09-27T04:25:10;14.50;99.90
23051;DHT22;11693;51.358;12.410;2022-09-27T04:27:36;14.40;99.90
23051;DHT22;11693;51.358;12.410;2022-09-27T04:30:03;14.40;99.90
23051;DHT22;11693;51.358;12.410;2022-09-27T04:32:30;14.40;99.90
23051;DHT22;11693;51.358;12.410;2022-09-27T04:34:56;14.50;99.90
23051;DHT22;11693;51.358;12.410;2022-09-27T04:37:40;14.50;99.90
23051;DHT22;11693;51.358;12.410;2022-09-27T04:40:08;14.60;99.90
23051;DHT22;11693;51.358;12.410;2022-09-27T04:42:34;14.60;99.90
23051;DHT22;11693;51.358;12.410;2022-09-27T04:44:59;14.60;99.90
23051;DHT22;11693;51.358;12.410;2022-09-27T04:47:25;14.60;99.90
23051;DHT22;11693;51.358;12.410;2022-09-27T04:49:50;14.60;99.90
23051;DHT22;11693;51.358;12.410;2022-09-27T04:52:16;14.50;99.90
23051;DHT22;11693;51.358;12.410;2022-09-27T04:54:41;14.50;99.90
23051;DHT22;11693;51.358;12.410;2022-09-27T04:57:07;14.60;99.90
23051;DHT22;11693;51.358;12.410;2022-09-27T04:59:33;14.50;99.90
23051;DHT22;11693;51.358;12.410;2022-09-27T05:01:58;14.40;99.90
23051;DHT22;11693;51.358;12.410;2022-09-27T05:04:25;14.50;99.90
23051;DHT22;11693;51.358;12.410;2022-09-27T05:06:51;14.40;99.90
23051;DHT22;11693;51.358;12.410;2022-09-27T05:09:16;14.40;99.90
23051;DHT22;11693;51.358;12.410;2022-09-27T05:11:42;14.60;99.90
23051;DHT22;11693;51.358;12.410;2022-09-27T05:14:07;14.50;99.90
23051;DHT22;11693;51.358;12.410;2022-09-27T05:16:33;14.50;99.90
23051;DHT22;11693;51.358;12.410;2022-09-27T05:19:01;14.60;99.90
23051;DHT22;11693;51.358;12.410;2022-09-27T05:21:26;14.60;99.90
23051;DHT22;11693;51.358;12.410;2022-09-27T05:23:52;14.50;99.90
23051;DHT22;11693;51.358;12.410;2022-09-27T05:26:18;14.60;99.90
23051;DHT22;11693;51.358;12.410;2022-09-27T05:28:44;14.50;99.90
23051;DHT22;11693;51.358;12.410;2022-09-27T05:31:12;14.50;99.90
23051;DHT22;11693;51.358;12.410;2022-09-27T05:33:39;14.60;99.90
23051;DHT22;11693;51.358;12.410;2022-09-27T05:36:05;14.60;99.90
23051;DHT22;11693;51.358;12.410;2022-09-27T05:38:31;14.80;99.90
23051;DHT22;11693;51.358;12.410;2022-09-27T05:40:57;14.60;99.90
23051;DHT22;11693;51.358;12.410;2022-09-27T05:43:22;14.80;99.90
23051;DHT22;11693;51.358;12.410;2022-09-27T05:45:49;14.70;99.90
23051;DHT22;11693;51.358;12.410;2022-09-27T05:48:17;14.80;99.90
23051;DHT22;11693;51.358;12.410;2022-09-27T05:50:43;14.80;99.90
23051;DHT22;11693;51.358;12.410;2022-09-27T05:53:09;14.80;99.90
23051;DHT22;11693;51.358;12.410;2022-09-27T05:55:36;14.90;99.90
23051;DHT22;11693;51.358;12.410;2022-09-27T05:58:04;15.00;99.90
23051;DHT22;11693;51.358;12.410;2022-09-27T06:00:30;15.00;99.90
23051;DHT22;11693;51.358;12.410;2022-09-27T06:03:00;15.10;99.90
23051;DHT22;11693;51.358;12.410;2022-09-27T06:05:30;15.20;99.90
23051;DHT22;11693;51.358;12.410;2022-09-27T06:08:01;15.30;99.90
23051;DHT22;11693;51.358;12.410;2022-09-27T06:10:28;15.30;99.90
23051;DHT22;11693;51.358;12.410;2022-09-27T06:12:59;15.50;99.90
23051;DHT22;11693;51.358;12.410;2022-09-27T06:15:27;15.40;99.90
23051;DHT22;11693;51.358;12.410;2022-09-27T06:17:52;15.40;99.90
23051;DHT22;11693;51.358;12.410;2022-09-27T06:20:18;15.40;99.90
23051;DHT22;11693;51.358;12.410;2022-09-27T06:22:45;15.40;99.90
23051;DHT22;11693;51.358;12.410;2022-09-27T06:25:11;15.40;99.90
23051;DHT22;11693;51.358;12.410;2022-09-27T06:27:36;15.60;99.90
23051;DHT22;11693;51.358;12.410;2022-09-27T06:30:03;15.50;99.90
23051;DHT22;11693;51.358;12.410;2022-09-27T06:32:29;15.50;99.90
23051;DHT22;11693;51.358;12.410;2022-09-27T06:34:57;15.60;99.90
23051;DHT22;11693;51.358;12.410;2022-09-27T06:37:26;15.60;99.90
23051;DHT22;11693;51.358;12.410;2022-09-27T06:39:52;15.60;99.90
23051;DHT22;11693;51.358;12.410;2022-09-27T06:42:18;15.40;99.90
23051;DHT22;11693;51.358;12.410;2022-09-27T06:44:44;15.50;99.90
23051;DHT22;11693;51.358;12.410;2022-09-27T06:47:17;15.50;99.90
23051;DHT22;11693;51.358;12.410;2022-09-27T06:49:43;15.60;99.90
23051;DHT22;11693;51.358;12.410;2022-09-27T06:52:09;15.60;99.90
23051;DHT22;11693;51.358;12.410;2022-09-27T06:54:35;15.60;99.90
23051;DHT22;11693;51.358;12.410;2022-09-27T06:57:01;15.60;99.90
23051;DHT22;11693;51.358;12.410;2022-09-27T06:59:26;15.50;99.90
23051;DHT22;11693;51.358;12.410;2022-09-27T07:02:11;15.70;99.90
23051;DHT22;11693;51.358;12.410;2022-09-27T07:04:37;15.70;99.90
23051;DHT22;11693;51.358;12.410;2022-09-27T07:07:03;15.70;99.90
23051;DHT22;11693;51.358;12.410;2022-09-27T07:09:28;15.70;99.90
23051;DHT22;11693;51.358;12.410;2022-09-27T07:11:54;15.80;99.90
23051;DHT22;11693;51.358;12.410;2022-09-27T07:14:20;15.90;99.90
23051;DHT22;11693;51.358;12.410;2022-09-27T07:16:46;15.90;99.90
23051;DHT22;11693;51.358;12.410;2022-09-27T07:19:11;15.90;99.90
23051;DHT22;11693;51.358;12.410;2022-09-27T07:21:39;16.10;99.90
23051;DHT22;11693;51.358;12.410;2022-09-27T07:24:04;16.20;99.90
23051;DHT22;11693;51.358;12.410;2022-09-27T07:26:30;16.30;99.90
23051;DHT22;11693;51.358;12.410;2022-09-27T07:28:56;16.40;99.90
23051;DHT22;11693;51.358;12.410;2022-09-27T07:31:39;16.50;99.90
23051;DHT22;11693;51.358;12.410;2022-09-27T07:37:44;16.50;99.90
23051;DHT22;11693;51.358;12.410;2022-09-27T07:46:37;16.30;99.90
23051;DHT22;11693;51.358;12.410;2022-09-27T07:53:09;16.10;99.90
23051;DHT22;11693;51.358;12.410;2022-09-27T07:59:29;16.30;99.90
23051;DHT22;11693;51.358;12.410;2022-09-27T08:05:44;16.60;99.90
23051;DHT22;11693;51.358;12.410;2022-09-27T08:14:04;16.60;99.90
23051;DHT22;11693;51.358;12.410;2022-09-27T08:16:35;16.80;99.90
23051;DHT22;11693;51.358;12.410;2022-09-27T08:19:01;16.60;99.90
23051;DHT22;11693;51.358;12.410;2022-09-27T08:22:26;16.70;99.90
23051;DHT22;11693;51.358;12.410;2022-09-27T08:24:56;16.70;99.90
23051;DHT22;11693;51.358;12.410;2022-09-27T08:27:53;16.70;99.90
23051;DHT22;11693;51.358;12.410;2022-09-27T08:30:47;16.80;99.90
23051;DHT22;11693;51.358;12.410;2022-09-27T08:33:22;16.80;99.90
23051;DHT22;11693;51.358;12.410;2022-09-27T08:35:57;16.60;99.90
23051;DHT22;11693;51.358;12.410;2022-09-27T08:38:32;16.40;99.90
23051;DHT22;11693;51.358;12.410;2022-09-27T08:47:26;15.60;99.90
23051;DHT22;11693;51.358;12.410;2022-09-27T08:50:27;15.60;99.90
23051;DHT22;11693;51.358;12.410;2022-09-27T08:59:33;15.30;99.90
23051;DHT22;11693;51.358;12.410;2022-09-27T09:12:41;15.40;99.90
23051;DHT22;11693;51.358;12.410;2022-09-27T09:15:34;15.40;99.90
23051;DHT22;11693;51.358;12.410;2022-09-27T09:38:15;16.20;99.90
23051;DHT22;11693;51.358;12.410;2022-09-27T09:45:06;16.40;99.90
23051;DHT22;11693;51.358;12.410;2022-09-27T09:50:51;15.90;99.90
23051;DHT22;11693;51.358;12.410;2022-09-27T09:56:34;15.50;99.90
23051;DHT22;11693;51.358;12.410;2022-09-27T09:59:39;15.20;99.90
23051;DHT22;11693;51.358;12.410;2022-09-27T10:04:59;14.60;99.90
23051;DHT22;11693;51.358;12.410;2022-09-27T10:07:26;14.80;99.90
23051;DHT22;11693;51.358;12.410;2022-09-27T10:09:56;14.80;99.90
23051;DHT22;11693;51.358;12.410;2022-09-27T10:12:23;15.00;99.90
23051;DHT22;11693;51.358;12.410;2022-09-27T10:14:49;15.10;99.90
23051;DHT22;11693;51.358;12.410;2022-09-27T10:17:19;15.30;99.90
23051;DHT22;11693;51.358;12.410;2022-09-27T10:19:46;15.50;99.90
23051;DHT22;11693;51.358;12.410;2022-09-27T10:24:58;15.90;99.90
23051;DHT22;11693;51.358;12.410;2022-09-27T10:27:28;16.10;99.90
23051;DHT22;11693;51.358;12.410;2022-09-27T10:30:03;16.10;99.90
23051;DHT22;11693;51.358;12.410;2022-09-27T10:32:33;16.20;99.90
23051;DHT22;11693;51.358;12.410;2022-09-27T10:40:50;16.10;99.90
23051;DHT22;11693;51.358;12.410;2022-09-27T10:43:34;16.00;99.90
23051;DHT22;11693;51.358;12.410;2022-09-27T10:48:30;16.00;99.90
23051;DHT22;11693;51.358;12.410;2022-09-27T10:50:59;16.10;99.90
23051;DHT22;11693;51.358;12.410;2022-09-27T10:53:25;15.90;99.90
23051;DHT22;11693;51.358;12.410;2022-09-27T10:55:52;15.90;99.90
23051;DHT22;11693;51.358;12.410;2022-09-27T10:58:30;15.90;99.90
23051;DHT22;11693;51.358;12.410;2022-09-27T11:01:09;16.00;99.90
23051;DHT22;11693;51.358;12.410;2022-09-27T11:03:45;16.10;99.90
23051;DHT22;11693;51.358;12.410;2022-09-27T11:08:54;15.70;99.90
23051;DHT22;11693;51.358;12.410;2022-09-27T11:11:23;15.60;99.90
23051;DHT22;11693;51.358;12.410;2022-09-27T11:14:04;15.60;99.90
23051;DHT22;11693;51.358;12.410;2022-09-27T11:17:03;15.80;99.90
23051;DHT22;11693;51.358;12.410;2022-09-27T11:19:54;16.10;99.90
23051;DHT22;11693;51.358;12.410;2022-09-27T11:23:03;16.50;99.90
23051;DHT22;11693;51.358;12.410;2022-09-27T11:52:41;16.70;99.90
23051;DHT22;11693;51.358;12.410;2022-09-27T12:00:50;16.50;99.90
23051;DHT22;11693;51.358;12.410;2022-09-27T12:06:17;16.20;99.90
23051;DHT22;11693;51.358;12.410;2022-09-27T12:09:08;15.90;99.90
23051;DHT22;11693;51.358;12.410;2022-09-27T12:11:40;15.80;99.90
23051;DHT22;11693;51.358;12.410;2022-09-27T12:14:32;15.80;99.90
23051;DHT22;11693;51.358;12.410;2022-09-27T12:17:02;16.10;99.90
23051;DHT22;11693;51.358;12.410;2022-09-27T12:19:32;16.60;99.90
23051;DHT22;11693;51.358;12.410;2022-09-27T12:22:02;16.90;99.90
23051;DHT22;11693;51.358;12.410;2022-09-27T12:24:29;17.10;99.90
23051;DHT22;11693;51.358;12.410;2022-09-27T12:27:03;17.30;99.90
23051;DHT22;11693;51.358;12.410;2022-09-27T12:29:35;17.30;99.90
23051;DHT22;11693;51.358;12.410;2022-09-27T12:32:29;17.30;99.90
23051;DHT22;11693;51.358;12.410;2022-09-27T12:35:14;17.30;99.90
23051;DHT22;11693;51.358;12.410;2022-09-27T12:38:02;17.60;99.90
23051;DHT22;11693;51.358;12.410;2022-09-27T12:48:49;17.80;99.90
23051;DHT22;11693;51.358;12.410;2022-09-27T12:51:20;18.00;99.90
23051;DHT22;11693;51.358;12.410;2022-09-27T12:54:13;17.90;99.90
23051;DHT22;11693;51.358;12.410;2022-09-27T12:57:01;18.20;99.90
23051;DHT22;11693;51.358;12.410;2022-09-27T12:59:45;18.70;99.90
23051;DHT22;11693;51.358;12.410;2022-09-27T13:02:55;19.50;99.90
23051;DHT22;11693;51.358;12.410;2022-09-27T13:13:23;19.80;99.90
23051;DHT22;11693;51.358;12.410;2022-09-27T13:15:57;19.60;99.90
23051;DHT22;11693;51.358;12.410;2022-09-27T13:21:05;19.60;99.90
23051;DHT22;11693;51.358;12.410;2022-09-27T13:31:06;19.70;99.90
23051;DHT22;11693;51.358;12.410;2022-09-27T13:33:48;19.60;99.90
23051;DHT22;11693;51.358;12.410;2022-09-27T13:36:31;19.20;99.90
23051;DHT22;11693;51.358;12.410;2022-09-27T13:47:28;18.90;99.90
23051;DHT22;11693;51.358;12.410;2022-09-27T13:53:25;19.00;99.90
23051;DHT22;11693;51.358;12.410;2022-09-27T13:55:52;19.30;99.90
23051;DHT22;11693;51.358;12.410;2022-09-27T14:00:49;19.70;99.90
23051;DHT22;11693;51.358;12.410;2022-09-27T14:03:59;19.80;99.90
23051;DHT22;11693;51.358;12.410;2022-09-27T14:06:21;19.50;99.90
23051;DHT22;11693;51.358;12.410;2022-09-27T14:09:02;19.50;99.90
23051;DHT22;11693;51.358;12.410;2022-09-27T14:11:37;19.40;99.90
23051;DHT22;11693;51.358;12.410;2022-09-27T14:14:04;19.30;99.90
23051;DHT22;11693;51.358;12.410;2022-09-27T14:16:33;18.90;99.90
23051;DHT22;11693;51.358;12.410;2022-09-27T14:19:00;18.60;99.90
23051;DHT22;11693;51.358;12.410;2022-09-27T14:21:32;18.20;99.90
23051;DHT22;11693;51.358;12.410;2022-09-27T14:26:43;17.70;99.90
23051;DHT22;11693;51.358;12.410;2022-09-27T14:29:21;17.40;99.90
23051;DHT22;11693;51.358;12.410;2022-09-27T14:32:01;17.40;99.90
23051;DHT22;11693;51.358;12.410;2022-09-27T14:34:27;17.30;99.90
23051;DHT22;11693;51.358;12.410;2022-09-27T14:36:55;17.10;99.90
23051;DHT22;11693;51.358;12.410;2022-09-27T14:39:40;17.10;99.90
23051;DHT22;11693;51.358;12.410;2022-09-27T14:42:20;17.00;99.90
23051;DHT22;11693;51.358;12.410;2022-09-27T14:44:47;17.00;99.90
23051;DHT22;11693;51.358;12.410;2022-09-27T14:47:20;17.20;99.90
23051;DHT22;11693;51.358;12.410;2022-09-27T14:49:58;17.30;99.90
23051;DHT22;11693;51.358;12.410;2022-09-27T14:52:29;17.50;99.90
23051;DHT22;11693;51.358;12.410;2022-09-27T14:55:01;17.60;99.90
23051;DHT22;11693;51.358;12.410;2022-09-27T14:57:32;17.70;99.90
23051;DHT22;11693;51.358;12.410;2022-09-27T15:00:54;17.70;99.90
23051;DHT22;11693;51.358;12.410;2022-09-27T15:02:58;17.70;99.90
23051;DHT22;11693;51.358;12.410;2022-09-27T15:05:27;17.70;99.90
23051;DHT22;11693;51.358;12.410;2022-09-27T15:07:54;17.60;99.90
23051;DHT22;11693;51.358;12.410;2022-09-27T15:10:24;17.30;99.90
23051;DHT22;11693;51.358;12.410;2022-09-27T15:12:53;17.20;99.90
23051;DHT22;11693;51.358;12.410;2022-09-27T15:15:23;17.20;99.90
23051;DHT22;11693;51.358;12.410;2022-09-27T15:17:51;17.10;99.90
23051;DHT22;11693;51.358;12.410;2022-09-27T15:30:18;16.90;99.90
23051;DHT22;11693;51.358;12.410;2022-09-27T15:46:50;16.70;99.90
23051;DHT22;11693;51.358;12.410;2022-09-27T15:49:41;16.80;99.90
23051;DHT22;11693;51.358;12.410;2022-09-27T16:01:38;16.80;99.90
23051;DHT22;11693;51.358;12.410;2022-09-27T16:04:19;16.70;99.90
23051;DHT22;11693;51.358;12.410;2022-09-27T16:07:17;16.70;99.90
23051;DHT22;11693;51.358;12.410;2022-09-27T16:14:02;16.30;99.90
23051;DHT22;11693;51.358;12.410;2022-09-27T16:26:51;16.20;99.90
23051;DHT22;11693;51.358;12.410;2022-09-27T16:40:12;16.10;99.90
23051;DHT22;11693;51.358;12.410;2022-09-27T16:43:35;16.10;99.90
23051;DHT22;11693;51.358;12.410;2022-09-27T16:53:55;15.80;99.90
23051;DHT22;11693;51.358;12.410;2022-09-27T17:11:04;15.60;99.90
23051;DHT22;11693;51.358;12.410;2022-09-27T17:17:31;15.80;99.90
23051;DHT22;11693;51.358;12.410;2022-09-27T17:27:38;15.90;99.90
23051;DHT22;11693;51.358;12.410;2022-09-27T17:30:50;15.80;99.90
23051;DHT22;11693;51.358;12.410;2022-09-27T17:33:35;15.70;99.90
23051;DHT22;11693;51.358;12.410;2022-09-27T17:36:38;15.70;99.90
23051;DHT22;11693;51.358;12.410;2022-09-27T17:39:29;15.50;99.90
23051;DHT22;11693;51.358;12.410;2022-09-27T17:48:56;15.40;99.90
23051;DHT22;11693;51.358;12.410;2022-09-27T17:55:39;15.30;99.90
23051;DHT22;11693;51.358;12.410;2022-09-27T18:02:11;15.40;99.90
23051;DHT22;11693;51.358;12.410;2022-09-27T18:04:58;15.30;99.90
23051;DHT22;11693;51.358;12.410;2022-09-27T18:19:00;15.00;99.90
23051;DHT22;11693;51.358;12.410;2022-09-27T18:51:56;14.90;99.90
23051;DHT22;11693;51.358;12.410;2022-09-27T19:07:30;15.10;99.90
23051;DHT22;11693;51.358;12.410;2022-09-27T19:10:31;15.10;99.90
23051;DHT22;11693;51.358;12.410;2022-09-27T19:13:40;15.00;99.90
23051;DHT22;11693;51.358;12.410;2022-09-27T19:29:15;14.50;99.90
23051;DHT22;11693;51.358;12.410;2022-09-27T19:32:07;14.70;99.90
23051;DHT22;11693;51.358;12.410;2022-09-27T19:44:16;14.40;99.90
23051;DHT22;11693;51.358;12.410;2022-09-27T19:50:12;14.40;99.90
23051;DHT22;11693;51.358;12.410;2022-09-27T19:52:59;14.40;99.90
23051;DHT22;11693;51.358;12.410;2022-09-27T19:56:09;14.40;99.90
23051;DHT22;11693;51.358;12.410;2022-09-27T20:02:29;14.40;99.90
23051;DHT22;11693;51.358;12.410;2022-09-27T20:08:46;14.30;99.90
23051;DHT22;11693;51.358;12.410;2022-09-27T20:11:36;14.20;99.90
23051;DHT22;11693;51.358;12.410;2022-09-27T20:14:20;14.30;99.90
23051;DHT22;11693;51.358;12.410;2022-09-27T20:17:13;14.20;99.90
23051;DHT22;11693;51.358;12.410;2022-09-27T20:20:05;14.30;99.90
23051;DHT22;11693;51.358;12.410;2022-09-27T20:29:22;14.30;99.90
23051;DHT22;11693;51.358;12.410;2022-09-27T20:32:15;14.50;99.90
23051;DHT22;11693;51.358;12.410;2022-09-27T20:38:09;14.50;99.90
23051;DHT22;11693;51.358;12.410;2022-09-27T20:41:02;14.60;99.90
23051;DHT22;11693;51.358;12.410;2022-09-27T20:43:43;14.70;99.90
23051;DHT22;11693;51.358;12.410;2022-09-27T20:49:39;14.50;99.90
23051;DHT22;11693;51.358;12.410;2022-09-27T20:52:20;14.30;99.90
23051;DHT22;11693;51.358;12.410;2022-09-27T20:57:55;14.30;99.90
23051;DHT22;11693;51.358;12.410;2022-09-27T21:00:47;14.10;99.90
23051;DHT22;11693;51.358;12.410;2022-09-27T21:03:29;14.30;99.90
23051;DHT22;11693;51.358;12.410;2022-09-27T21:06:32;14.40;99.90
23051;DHT22;11693;51.358;12.410;2022-09-27T21:09:21;14.30;99.90
23051;DHT22;11693;51.358;12.410;2022-09-27T21:19:11;14.20;99.90
23051;DHT22;11693;51.358;12.410;2022-09-27T21:28:19;14.00;99.90
23051;DHT22;11693;51.358;12.410;2022-09-27T21:34:51;13.80;99.90
23051;DHT22;11693;51.358;12.410;2022-09-27T21:37:35;13.90;99.90
23051;DHT22;11693;51.358;12.410;2022-09-27T21:43:32;13.80;99.90
23051;DHT22;11693;51.358;12.410;2022-09-27T21:46:16;13.80;99.90
23051;DHT22;11693;51.358;12.410;2022-09-27T21:49:00;13.70;99.90
23051;DHT22;11693;51.358;12.410;2022-09-27T21:51:42;13.60;99.90
23051;DHT22;11693;51.358;12.410;2022-09-27T21:57:42;13.50;99.90
23051;DHT22;11693;51.358;12.410;2022-09-27T22:00:32;13.30;99.90
23051;DHT22;11693;51.358;12.410;2022-09-27T22:03:07;13.30;99.90
23051;DHT22;11693;51.358;12.410;2022-09-27T22:09:21;13.50;99.90
23051;DHT22;11693;51.358;12.410;2022-09-27T22:12:12;13.40;99.90
23051;DHT22;11693;51.358;12.410;2022-09-27T22:14:45;13.30;99.90
23051;DHT22;11693;51.358;12.410;2022-09-27T22:17:18;13.40;99.90
23051;DHT22;11693;51.358;12.410;2022-09-27T22:20:34;13.30;99.90
23051;DHT22;11693;51.358;12.410;2022-09-27T22:23:45;13.30;99.90
23051;DHT22;11693;51.358;12.410;2022-09-27T22:26:33;13.20;99.90
23051;DHT22;11693;51.358;12.410;2022-09-27T22:37:23;13.40;99.90
23051;DHT22;11693;51.358;12.410;2022-09-27T22:42:47;13.40;99.90
23051;DHT22;11693;51.358;12.410;2022-09-27T22:45:29;13.30;99.90
23051;DHT22;11693;51.358;12.410;2022-09-27T22:48:27;13.30;99.90
23051;DHT22;11693;51.358;12.410;2022-09-27T22:51:23;13.30;99.90
23051;DHT22;11693;51.358;12.410;2022-09-27T22:54:21;13.20;99.90
23051;DHT22;11693;51.358;12.410;2022-09-27T23:00:32;13.40;99.90
23051;DHT22;11693;51.358;12.410;2022-09-27T23:03:14;13.50;99.90
23051;DHT22;11693;51.358;12.410;2022-09-27T23:06:18;13.60;99.90
23051;DHT22;11693;51.358;12.410;2022-09-27T23:09:08;13.60;99.90
23051;DHT22;11693;51.358;12.410;2022-09-27T23:11:52;13.40;99.90
23051;DHT22;11693;51.358;12.410;2022-09-27T23:15:03;13.50;99.90
23051;DHT22;11693;51.358;12.410;2022-09-27T23:21:18;13.20;99.90
23051;DHT22;11693;51.358;12.410;2022-09-27T23:24:44;13.40;99.90
23051;DHT22;11693;51.358;12.410;2022-09-27T23:27:33;13.30;99.90
23051;DHT22;11693;51.358;12.410;2022-09-27T23:34:00;13.40;99.90
23051;DHT22;11693;51.358;12.410;2022-09-27T23:37:17;13.10;99.90
23051;DHT22;11693;51.358;12.410;2022-09-27T23:40:17;13.00;99.90
23051;DHT22;11693;51.358;12.410;2022-09-27T23:43:14;13.10;99.90
23051;DHT22;11693;51.358;12.410;2022-09-27T23:46:18;13.40;99.90
23051;DHT22;11693;51.358;12.410;2022-09-27T23:49:13;13.30;99.90
